sensor_id;sensor_type;location;lat;lon;timestamp;P1;durP1;ratioP1;P2;durP2;ratioP2
22172;SDS011;11252;50.596;17.648;2023-03-31T00:00:52;6.50;;;5.43;;
22172;SDS011;11252;50.596;17.648;2023-03-31T00:03:23;6.43;;;5.83;;
22172;SDS011;11252;50.596;17.648;2023-03-31T00:05:57;9.47;;;7.53;;
22172;SDS011;11252;50.596;17.648;2023-03-31T00:08:28;8.07;;;6.17;;
22172;SDS011;11252;50.596;17.648;2023-03-31T00:11:02;6.93;;;6.23;;
22172;SDS011;11252;50.596;17.648;2023-03-31T00:13:33;7.53;;;6.80;;
22172;SDS011;11252;50.596;17.648;2023-03-31T00:16:03;9.47;;;6.90;;
22172;SDS011;11252;50.596;17.648;2023-03-31T00:18:33;7.97;;;7.17;;
22172;SDS011;11252;50.596;17.648;2023-03-31T00:21:06;9.17;;;6.77;;
22172;SDS011;11252;50.596;17.648;2023-03-31T00:23:40;8.87;;;7.17;;
22172;SDS011;11252;50.596;17.648;2023-03-31T00:26:08;8.93;;;7.93;;
22172;SDS011;11252;50.596;17.648;2023-03-31T00:28:35;8.37;;;7.53;;
22172;SDS011;11252;50.596;17.648;2023-03-31T00:31:02;9.90;;;7.63;;
22172;SDS011;11252;50.596;17.648;2023-03-31T00:33:30;9.63;;;7.47;;
22172;SDS011;11252;50.596;17.648;2023-03-31T00:35:57;9.00;;;7.37;;
22172;SDS011;11252;50.596;17.648;2023-03-31T00:38:32;8.97;;;7.70;;
22172;SDS011;11252;50.596;17.648;2023-03-31T00:41:00;12.73;;;7.90;;
22172;SDS011;11252;50.596;17.648;2023-03-31T00:43:31;8.47;;;7.57;;
22172;SDS011;11252;50.596;17.648;2023-03-31T00:46:10;8.90;;;8.10;;
22172;SDS011;11252;50.596;17.648;2023-03-31T00:48:50;8.80;;;7.93;;
22172;SDS011;11252;50.596;17.648;2023-03-31T00:51:19;8.70;;;7.80;;
22172;SDS011;11252;50.596;17.648;2023-03-31T00:53:50;8.27;;;7.47;;
22172;SDS011;11252;50.596;17.648;2023-03-31T00:56:23;8.50;;;7.60;;
22172;SDS011;11252;50.596;17.648;2023-03-31T00:58:52;7.67;;;6.80;;
22172;SDS011;11252;50.596;17.648;2023-03-31T01:01:23;9.77;;;7.13;;
22172;SDS011;11252;50.596;17.648;2023-03-31T01:03:52;7.33;;;6.20;;
22172;SDS011;11252;50.596;17.648;2023-03-31T01:06:19;7.17;;;6.47;;
22172;SDS011;11252;50.596;17.648;2023-03-31T01:08:49;7.83;;;7.03;;
22172;SDS011;11252;50.596;17.648;2023-03-31T01:11:21;7.60;;;6.23;;
22172;SDS011;11252;50.596;17.648;2023-03-31T01:13:53;6.70;;;6.10;;
22172;SDS011;11252;50.596;17.648;2023-03-31T01:16:22;7.93;;;5.07;;
22172;SDS011;11252;50.596;17.648;2023-03-31T01:18:49;6.93;;;5.90;;
22172;SDS011;11252;50.596;17.648;2023-03-31T01:21:26;7.50;;;6.10;;
22172;SDS011;11252;50.596;17.648;2023-03-31T01:41:00;6.07;;;5.43;;
22172;SDS011;11252;50.596;17.648;2023-03-31T01:47:28;7.17;;;5.40;;
22172;SDS011;11252;50.596;17.648;2023-03-31T01:49:38;8.20;;;5.50;;
22172;SDS011;11252;50.596;17.648;2023-03-31T01:52:22;5.90;;;5.30;;
22172;SDS011;11252;50.596;17.648;2023-03-31T01:54:54;8.80;;;5.50;;
22172;SDS011;11252;50.596;17.648;2023-03-31T01:57:59;6.23;;;5.60;;
22172;SDS011;11252;50.596;17.648;2023-03-31T02:00:33;7.23;;;5.17;;
22172;SDS011;11252;50.596;17.648;2023-03-31T02:03:09;7.83;;;5.47;;
22172;SDS011;11252;50.596;17.648;2023-03-31T02:05:46;5.73;;;5.13;;
22172;SDS011;11252;50.596;17.648;2023-03-31T02:08:24;5.17;;;4.67;;
22172;SDS011;11252;50.596;17.648;2023-03-31T02:10:56;5.90;;;5.20;;
22172;SDS011;11252;50.596;17.648;2023-03-31T02:13:25;6.00;;;5.07;;
22172;SDS011;11252;50.596;17.648;2023-03-31T02:15:56;5.10;;;4.27;;
22172;SDS011;11252;50.596;17.648;2023-03-31T02:18:29;5.13;;;4.63;;
22172;SDS011;11252;50.596;17.648;2023-03-31T02:20:59;5.13;;;4.63;;
22172;SDS011;11252;50.596;17.648;2023-03-31T02:23:27;7.97;;;4.53;;
22172;SDS011;11252;50.596;17.648;2023-03-31T02:26:05;7.30;;;5.00;;
22172;SDS011;11252;50.596;17.648;2023-03-31T02:28:45;4.90;;;4.30;;
22172;SDS011;11252;50.596;17.648;2023-03-31T02:31:20;5.00;;;4.30;;
22172;SDS011;11252;50.596;17.648;2023-03-31T02:34:08;6.90;;;4.50;;
22172;SDS011;11252;50.596;17.648;2023-03-31T02:36:35;5.90;;;4.90;;
22172;SDS011;11252;50.596;17.648;2023-03-31T02:39:05;5.00;;;4.50;;
22172;SDS011;11252;50.596;17.648;2023-03-31T02:41:38;6.67;;;5.60;;
22172;SDS011;11252;50.596;17.648;2023-03-31T02:44:05;6.23;;;5.63;;
22172;SDS011;11252;50.596;17.648;2023-03-31T02:46:33;6.53;;;4.90;;
22172;SDS011;11252;50.596;17.648;2023-03-31T02:49:01;6.77;;;6.00;;
22172;SDS011;11252;50.596;17.648;2023-03-31T02:51:35;7.40;;;5.60;;
22172;SDS011;11252;50.596;17.648;2023-03-31T02:57:08;6.73;;;6.03;;
22172;SDS011;11252;50.596;17.648;2023-03-31T03:07:52;7.23;;;6.13;;
22172;SDS011;11252;50.596;17.648;2023-03-31T03:13:27;8.90;;;6.20;;
22172;SDS011;11252;50.596;17.648;2023-03-31T03:18:33;5.67;;;5.00;;
22172;SDS011;11252;50.596;17.648;2023-03-31T03:21:01;8.07;;;6.17;;
22172;SDS011;11252;50.596;17.648;2023-03-31T03:23:29;6.87;;;5.77;;
22172;SDS011;11252;50.596;17.648;2023-03-31T03:25:56;7.57;;;5.30;;
22172;SDS011;11252;50.596;17.648;2023-03-31T03:28:24;5.93;;;5.10;;
22172;SDS011;11252;50.596;17.648;2023-03-31T03:30:51;6.87;;;6.10;;
22172;SDS011;11252;50.596;17.648;2023-03-31T03:33:19;6.87;;;6.23;;
22172;SDS011;11252;50.596;17.648;2023-03-31T03:35:50;9.27;;;6.43;;
22172;SDS011;11252;50.596;17.648;2023-03-31T03:38:17;9.50;;;8.00;;
22172;SDS011;11252;50.596;17.648;2023-03-31T03:40:45;10.03;;;7.73;;
22172;SDS011;11252;50.596;17.648;2023-03-31T03:43:15;14.90;;;12.57;;
22172;SDS011;11252;50.596;17.648;2023-03-31T03:45:46;10.93;;;9.23;;
22172;SDS011;11252;50.596;17.648;2023-03-31T03:48:14;10.33;;;9.27;;
22172;SDS011;11252;50.596;17.648;2023-03-31T03:50:42;10.17;;;8.80;;
22172;SDS011;11252;50.596;17.648;2023-03-31T03:53:11;10.30;;;8.37;;
22172;SDS011;11252;50.596;17.648;2023-03-31T03:55:39;20.97;;;12.07;;
22172;SDS011;11252;50.596;17.648;2023-03-31T03:58:06;36.07;;;18.43;;
22172;SDS011;11252;50.596;17.648;2023-03-31T04:00:34;39.77;;;18.17;;
22172;SDS011;11252;50.596;17.648;2023-03-31T04:03:01;47.53;;;22.00;;
22172;SDS011;11252;50.596;17.648;2023-03-31T04:05:29;51.57;;;23.57;;
22172;SDS011;11252;50.596;17.648;2023-03-31T04:07:56;37.10;;;17.90;;
22172;SDS011;11252;50.596;17.648;2023-03-31T04:10:24;25.57;;;13.70;;
22172;SDS011;11252;50.596;17.648;2023-03-31T04:12:51;21.83;;;12.70;;
22172;SDS011;11252;50.596;17.648;2023-03-31T04:15:18;24.57;;;14.47;;
22172;SDS011;11252;50.596;17.648;2023-03-31T04:17:46;29.90;;;15.93;;
22172;SDS011;11252;50.596;17.648;2023-03-31T04:20:16;25.50;;;14.83;;
22172;SDS011;11252;50.596;17.648;2023-03-31T04:22:43;19.93;;;12.97;;
22172;SDS011;11252;50.596;17.648;2023-03-31T04:25:13;20.30;;;12.30;;
22172;SDS011;11252;50.596;17.648;2023-03-31T04:27:44;18.47;;;13.27;;
22172;SDS011;11252;50.596;17.648;2023-03-31T04:30:16;16.40;;;11.97;;
22172;SDS011;11252;50.596;17.648;2023-03-31T04:32:50;14.53;;;11.23;;
22172;SDS011;11252;50.596;17.648;2023-03-31T04:35:20;15.70;;;10.60;;
22172;SDS011;11252;50.596;17.648;2023-03-31T04:37:50;17.47;;;10.73;;
22172;SDS011;11252;50.596;17.648;2023-03-31T04:40:24;14.60;;;10.13;;
22172;SDS011;11252;50.596;17.648;2023-03-31T04:42:52;16.73;;;9.97;;
22172;SDS011;11252;50.596;17.648;2023-03-31T04:45:19;16.87;;;10.77;;
22172;SDS011;11252;50.596;17.648;2023-03-31T04:47:46;16.43;;;11.17;;
22172;SDS011;11252;50.596;17.648;2023-03-31T04:50:14;13.07;;;10.63;;
22172;SDS011;11252;50.596;17.648;2023-03-31T04:52:43;18.63;;;13.07;;
22172;SDS011;11252;50.596;17.648;2023-03-31T04:55:11;15.70;;;11.20;;
22172;SDS011;11252;50.596;17.648;2023-03-31T04:57:41;17.13;;;12.03;;
22172;SDS011;11252;50.596;17.648;2023-03-31T05:00:08;16.03;;;11.30;;
22172;SDS011;11252;50.596;17.648;2023-03-31T05:02:38;17.70;;;11.07;;
22172;SDS011;11252;50.596;17.648;2023-03-31T05:05:06;14.27;;;10.63;;
22172;SDS011;11252;50.596;17.648;2023-03-31T05:07:34;12.13;;;9.00;;
22172;SDS011;11252;50.596;17.648;2023-03-31T05:10:01;8.70;;;6.83;;
22172;SDS011;11252;50.596;17.648;2023-03-31T05:12:32;9.10;;;7.40;;
22172;SDS011;11252;50.596;17.648;2023-03-31T05:15:03;13.03;;;8.47;;
22172;SDS011;11252;50.596;17.648;2023-03-31T05:17:33;11.97;;;8.50;;
22172;SDS011;11252;50.596;17.648;2023-03-31T05:20:01;12.90;;;8.67;;
22172;SDS011;11252;50.596;17.648;2023-03-31T05:22:33;10.27;;;8.30;;
22172;SDS011;11252;50.596;17.648;2023-03-31T05:25:03;10.83;;;7.40;;
22172;SDS011;11252;50.596;17.648;2023-03-31T05:27:33;9.77;;;7.63;;
22172;SDS011;11252;50.596;17.648;2023-03-31T05:30:02;10.50;;;7.50;;
22172;SDS011;11252;50.596;17.648;2023-03-31T05:32:30;9.47;;;7.63;;
22172;SDS011;11252;50.596;17.648;2023-03-31T05:34:57;8.97;;;6.97;;
22172;SDS011;11252;50.596;17.648;2023-03-31T05:37:25;10.57;;;7.37;;
22172;SDS011;11252;50.596;17.648;2023-03-31T05:39:53;10.33;;;7.20;;
22172;SDS011;11252;50.596;17.648;2023-03-31T05:42:20;9.53;;;7.73;;
22172;SDS011;11252;50.596;17.648;2023-03-31T05:44:47;12.70;;;8.10;;
22172;SDS011;11252;50.596;17.648;2023-03-31T05:47:18;10.10;;;7.97;;
22172;SDS011;11252;50.596;17.648;2023-03-31T05:49:45;10.23;;;7.57;;
22172;SDS011;11252;50.596;17.648;2023-03-31T05:52:12;10.27;;;7.83;;
22172;SDS011;11252;50.596;17.648;2023-03-31T05:54:40;10.30;;;7.07;;
22172;SDS011;11252;50.596;17.648;2023-03-31T05:57:08;7.70;;;6.83;;
22172;SDS011;11252;50.596;17.648;2023-03-31T05:59:39;7.37;;;6.27;;
22172;SDS011;11252;50.596;17.648;2023-03-31T06:02:09;10.20;;;6.93;;
22172;SDS011;11252;50.596;17.648;2023-03-31T06:04:41;10.30;;;6.33;;
22172;SDS011;11252;50.596;17.648;2023-03-31T06:07:09;7.27;;;5.40;;
22172;SDS011;11252;50.596;17.648;2023-03-31T06:09:36;7.87;;;5.33;;
22172;SDS011;11252;50.596;17.648;2023-03-31T06:12:04;7.27;;;5.17;;
22172;SDS011;11252;50.596;17.648;2023-03-31T06:14:32;7.07;;;5.00;;
22172;SDS011;11252;50.596;17.648;2023-03-31T06:17:00;6.93;;;5.40;;
22172;SDS011;11252;50.596;17.648;2023-03-31T06:19:27;7.93;;;5.97;;
22172;SDS011;11252;50.596;17.648;2023-03-31T06:21:55;9.20;;;5.73;;
22172;SDS011;11252;50.596;17.648;2023-03-31T06:24:23;7.07;;;5.30;;
22172;SDS011;11252;50.596;17.648;2023-03-31T06:26:50;7.90;;;4.90;;
22172;SDS011;11252;50.596;17.648;2023-03-31T06:29:19;6.30;;;4.80;;
22172;SDS011;11252;50.596;17.648;2023-03-31T06:31:46;7.90;;;5.07;;
22172;SDS011;11252;50.596;17.648;2023-03-31T06:34:14;6.47;;;4.43;;
22172;SDS011;11252;50.596;17.648;2023-03-31T06:36:43;6.67;;;4.37;;
22172;SDS011;11252;50.596;17.648;2023-03-31T06:39:11;7.93;;;4.57;;
22172;SDS011;11252;50.596;17.648;2023-03-31T06:41:38;7.40;;;4.47;;
22172;SDS011;11252;50.596;17.648;2023-03-31T06:44:05;7.27;;;3.87;;
22172;SDS011;11252;50.596;17.648;2023-03-31T06:46:33;5.23;;;3.30;;
22172;SDS011;11252;50.596;17.648;2023-03-31T06:49:00;7.90;;;3.77;;
22172;SDS011;11252;50.596;17.648;2023-03-31T06:51:28;5.93;;;3.60;;
22172;SDS011;11252;50.596;17.648;2023-03-31T06:53:58;3.83;;;3.17;;
22172;SDS011;11252;50.596;17.648;2023-03-31T06:56:25;4.63;;;3.87;;
22172;SDS011;11252;50.596;17.648;2023-03-31T06:58:53;10.13;;;4.60;;
22172;SDS011;11252;50.596;17.648;2023-03-31T07:01:21;7.27;;;4.30;;
22172;SDS011;11252;50.596;17.648;2023-03-31T07:03:48;6.90;;;3.83;;
22172;SDS011;11252;50.596;17.648;2023-03-31T07:06:16;5.60;;;3.87;;
22172;SDS011;11252;50.596;17.648;2023-03-31T07:08:43;9.13;;;6.40;;
22172;SDS011;11252;50.596;17.648;2023-03-31T07:11:10;10.50;;;6.73;;
22172;SDS011;11252;50.596;17.648;2023-03-31T07:13:38;12.50;;;7.33;;
22172;SDS011;11252;50.596;17.648;2023-03-31T07:16:05;15.87;;;9.90;;
22172;SDS011;11252;50.596;17.648;2023-03-31T07:18:34;10.37;;;6.90;;
22172;SDS011;11252;50.596;17.648;2023-03-31T07:21:02;15.63;;;9.37;;
22172;SDS011;11252;50.596;17.648;2023-03-31T07:23:35;12.43;;;8.57;;
22172;SDS011;11252;50.596;17.648;2023-03-31T07:26:04;11.50;;;7.90;;
22172;SDS011;11252;50.596;17.648;2023-03-31T07:28:35;12.97;;;8.67;;
22172;SDS011;11252;50.596;17.648;2023-03-31T07:31:08;9.50;;;6.90;;
22172;SDS011;11252;50.596;17.648;2023-03-31T07:33:37;7.73;;;5.83;;
22172;SDS011;11252;50.596;17.648;2023-03-31T07:36:05;8.37;;;5.60;;
22172;SDS011;11252;50.596;17.648;2023-03-31T07:38:37;7.20;;;5.37;;
22172;SDS011;11252;50.596;17.648;2023-03-31T07:41:08;42.83;;;28.47;;
22172;SDS011;11252;50.596;17.648;2023-03-31T07:43:38;50.63;;;32.67;;
22172;SDS011;11252;50.596;17.648;2023-03-31T07:46:06;10.50;;;7.47;;
22172;SDS011;11252;50.596;17.648;2023-03-31T07:48:40;8.53;;;5.00;;
22172;SDS011;11252;50.596;17.648;2023-03-31T07:51:07;8.63;;;5.87;;
22172;SDS011;11252;50.596;17.648;2023-03-31T07:53:35;11.47;;;6.20;;
22172;SDS011;11252;50.596;17.648;2023-03-31T07:56:03;8.67;;;3.93;;
22172;SDS011;11252;50.596;17.648;2023-03-31T07:58:30;8.03;;;4.83;;
22172;SDS011;11252;50.596;17.648;2023-03-31T08:00:58;8.60;;;3.60;;
22172;SDS011;11252;50.596;17.648;2023-03-31T08:03:25;7.13;;;3.60;;
22172;SDS011;11252;50.596;17.648;2023-03-31T08:05:52;8.07;;;4.07;;
22172;SDS011;11252;50.596;17.648;2023-03-31T08:08:20;6.73;;;4.33;;
22172;SDS011;11252;50.596;17.648;2023-03-31T08:10:48;12.07;;;7.00;;
22172;SDS011;11252;50.596;17.648;2023-03-31T08:13:16;11.87;;;6.83;;
22172;SDS011;11252;50.596;17.648;2023-03-31T08:15:43;7.93;;;4.67;;
22172;SDS011;11252;50.596;17.648;2023-03-31T08:18:11;15.97;;;6.50;;
22172;SDS011;11252;50.596;17.648;2023-03-31T08:20:38;11.33;;;6.47;;
22172;SDS011;11252;50.596;17.648;2023-03-31T08:23:05;7.10;;;4.23;;
22172;SDS011;11252;50.596;17.648;2023-03-31T08:25:34;20.20;;;9.60;;
22172;SDS011;11252;50.596;17.648;2023-03-31T08:28:05;9.37;;;4.50;;
22172;SDS011;11252;50.596;17.648;2023-03-31T08:30:36;13.07;;;6.83;;
22172;SDS011;11252;50.596;17.648;2023-03-31T08:33:04;20.07;;;11.47;;
22172;SDS011;11252;50.596;17.648;2023-03-31T08:35:33;13.27;;;8.90;;
22172;SDS011;11252;50.596;17.648;2023-03-31T08:38:01;22.20;;;12.87;;
22172;SDS011;11252;50.596;17.648;2023-03-31T08:40:29;16.37;;;10.33;;
22172;SDS011;11252;50.596;17.648;2023-03-31T08:43:05;6.80;;;4.73;;
22172;SDS011;11252;50.596;17.648;2023-03-31T08:45:41;6.10;;;4.47;;
22172;SDS011;11252;50.596;17.648;2023-03-31T08:51:05;4.43;;;2.67;;
22172;SDS011;11252;50.596;17.648;2023-03-31T08:53:40;4.57;;;2.80;;
22172;SDS011;11252;50.596;17.648;2023-03-31T08:56:14;13.17;;;8.27;;
22172;SDS011;11252;50.596;17.648;2023-03-31T08:58:45;9.10;;;4.00;;
22172;SDS011;11252;50.596;17.648;2023-03-31T09:04:29;5.97;;;3.60;;
22172;SDS011;11252;50.596;17.648;2023-03-31T09:12:46;6.07;;;2.57;;
22172;SDS011;11252;50.596;17.648;2023-03-31T09:15:24;5.97;;;3.20;;
22172;SDS011;11252;50.596;17.648;2023-03-31T09:17:56;4.60;;;2.10;;
22172;SDS011;11252;50.596;17.648;2023-03-31T09:20:29;3.77;;;1.30;;
22172;SDS011;11252;50.596;17.648;2023-03-31T09:23:06;5.50;;;1.50;;
22172;SDS011;11252;50.596;17.648;2023-03-31T09:25:50;4.93;;;1.23;;
22172;SDS011;11252;50.596;17.648;2023-03-31T09:28:18;4.03;;;1.33;;
22172;SDS011;11252;50.596;17.648;2023-03-31T09:30:47;3.70;;;1.63;;
22172;SDS011;11252;50.596;17.648;2023-03-31T09:33:20;4.50;;;1.50;;
22172;SDS011;11252;50.596;17.648;2023-03-31T09:35:49;7.10;;;1.50;;
22172;SDS011;11252;50.596;17.648;2023-03-31T09:38:17;2.83;;;1.47;;
22172;SDS011;11252;50.596;17.648;2023-03-31T09:40:44;5.97;;;1.43;;
22172;SDS011;11252;50.596;17.648;2023-03-31T09:43:22;3.73;;;1.30;;
22172;SDS011;11252;50.596;17.648;2023-03-31T09:45:52;3.83;;;1.53;;
22172;SDS011;11252;50.596;17.648;2023-03-31T09:48:31;3.27;;;1.10;;
22172;SDS011;11252;50.596;17.648;2023-03-31T09:51:02;4.57;;;1.87;;
22172;SDS011;11252;50.596;17.648;2023-03-31T09:56:13;4.20;;;1.70;;
22172;SDS011;11252;50.596;17.648;2023-03-31T09:59:02;12.97;;;7.83;;
22172;SDS011;11252;50.596;17.648;2023-03-31T10:01:29;10.33;;;6.17;;
22172;SDS011;11252;50.596;17.648;2023-03-31T10:03:57;3.73;;;2.77;;
22172;SDS011;11252;50.596;17.648;2023-03-31T10:06:25;4.53;;;2.43;;
22172;SDS011;11252;50.596;17.648;2023-03-31T10:08:54;2.60;;;1.73;;
22172;SDS011;11252;50.596;17.648;2023-03-31T10:11:22;3.67;;;1.43;;
22172;SDS011;11252;50.596;17.648;2023-03-31T10:16:54;5.90;;;2.40;;
22172;SDS011;11252;50.596;17.648;2023-03-31T10:19:24;2.53;;;1.43;;
22172;SDS011;11252;50.596;17.648;2023-03-31T10:22:03;5.70;;;1.80;;
22172;SDS011;11252;50.596;17.648;2023-03-31T10:24:39;4.20;;;1.90;;
22172;SDS011;11252;50.596;17.648;2023-03-31T10:29:52;5.03;;;1.37;;
22172;SDS011;11252;50.596;17.648;2023-03-31T10:32:23;7.40;;;2.37;;
22172;SDS011;11252;50.596;17.648;2023-03-31T10:34:58;5.77;;;1.70;;
22172;SDS011;11252;50.596;17.648;2023-03-31T10:37:32;5.57;;;1.70;;
22172;SDS011;11252;50.596;17.648;2023-03-31T10:40:35;5.13;;;1.20;;
22172;SDS011;11252;50.596;17.648;2023-03-31T10:45:50;4.23;;;1.17;;
22172;SDS011;11252;50.596;17.648;2023-03-31T10:50:57;3.70;;;1.40;;
22172;SDS011;11252;50.596;17.648;2023-03-31T10:53:40;3.50;;;1.40;;
22172;SDS011;11252;50.596;17.648;2023-03-31T11:11:28;4.73;;;1.80;;
22172;SDS011;11252;50.596;17.648;2023-03-31T11:13:55;6.40;;;1.50;;
22172;SDS011;11252;50.596;17.648;2023-03-31T11:22:06;7.37;;;1.50;;
22172;SDS011;11252;50.596;17.648;2023-03-31T11:30:37;5.33;;;2.07;;
22172;SDS011;11252;50.596;17.648;2023-03-31T11:33:23;4.80;;;3.17;;
22172;SDS011;11252;50.596;17.648;2023-03-31T11:38:46;3.90;;;2.03;;
22172;SDS011;11252;50.596;17.648;2023-03-31T11:41:40;6.00;;;2.53;;
22172;SDS011;11252;50.596;17.648;2023-03-31T11:44:11;4.00;;;1.77;;
22172;SDS011;11252;50.596;17.648;2023-03-31T11:47:03;5.00;;;2.23;;
22172;SDS011;11252;50.596;17.648;2023-03-31T11:49:38;7.07;;;1.60;;
22172;SDS011;11252;50.596;17.648;2023-03-31T11:52:15;2.17;;;1.10;;
22172;SDS011;11252;50.596;17.648;2023-03-31T12:05:48;4.13;;;1.70;;
22172;SDS011;11252;50.596;17.648;2023-03-31T12:13:52;5.73;;;3.17;;
22172;SDS011;11252;50.596;17.648;2023-03-31T12:21:52;11.20;;;3.47;;
22172;SDS011;11252;50.596;17.648;2023-03-31T12:24:33;3.60;;;1.67;;
22172;SDS011;11252;50.596;17.648;2023-03-31T12:32:26;8.90;;;5.03;;
22172;SDS011;11252;50.596;17.648;2023-03-31T12:35:04;14.97;;;11.77;;
22172;SDS011;11252;50.596;17.648;2023-03-31T12:44:09;19.23;;;14.50;;
22172;SDS011;11252;50.596;17.648;2023-03-31T12:54:32;5.03;;;3.63;;
22172;SDS011;11252;50.596;17.648;2023-03-31T12:57:21;5.27;;;3.20;;
22172;SDS011;11252;50.596;17.648;2023-03-31T13:03:34;6.27;;;3.30;;
22172;SDS011;11252;50.596;17.648;2023-03-31T13:05:56;6.03;;;2.63;;
22172;SDS011;11252;50.596;17.648;2023-03-31T13:11:21;12.57;;;4.53;;
22172;SDS011;11252;50.596;17.648;2023-03-31T13:14:22;7.10;;;3.67;;
22172;SDS011;11252;50.596;17.648;2023-03-31T13:17:09;9.90;;;4.97;;
22172;SDS011;11252;50.596;17.648;2023-03-31T13:19:39;7.10;;;4.20;;
22172;SDS011;11252;50.596;17.648;2023-03-31T13:22:30;5.53;;;3.17;;
22172;SDS011;11252;50.596;17.648;2023-03-31T13:27:53;16.93;;;11.10;;
22172;SDS011;11252;50.596;17.648;2023-03-31T13:35:37;11.83;;;7.83;;
22172;SDS011;11252;50.596;17.648;2023-03-31T13:47:11;53.90;;;48.43;;
22172;SDS011;11252;50.596;17.648;2023-03-31T13:52:46;29.20;;;16.43;;
22172;SDS011;11252;50.596;17.648;2023-03-31T14:07:37;20.70;;;12.40;;
22172;SDS011;11252;50.596;17.648;2023-03-31T14:09:55;19.70;;;10.47;;
22172;SDS011;11252;50.596;17.648;2023-03-31T14:14:59;32.47;;;21.77;;
22172;SDS011;11252;50.596;17.648;2023-03-31T14:17:30;15.60;;;11.47;;
22172;SDS011;11252;50.596;17.648;2023-03-31T14:25:48;15.53;;;12.27;;
22172;SDS011;11252;50.596;17.648;2023-03-31T14:28:30;9.70;;;6.50;;
22172;SDS011;11252;50.596;17.648;2023-03-31T14:37:02;5.43;;;4.87;;
22172;SDS011;11252;50.596;17.648;2023-03-31T14:39:34;8.67;;;4.43;;
22172;SDS011;11252;50.596;17.648;2023-03-31T14:42:48;7.47;;;4.30;;
22172;SDS011;11252;50.596;17.648;2023-03-31T14:45:03;6.37;;;5.03;;
22172;SDS011;11252;50.596;17.648;2023-03-31T14:47:41;4.87;;;3.00;;
22172;SDS011;11252;50.596;17.648;2023-03-31T14:50:13;5.67;;;4.50;;
22172;SDS011;11252;50.596;17.648;2023-03-31T14:52:49;5.93;;;4.33;;
22172;SDS011;11252;50.596;17.648;2023-03-31T14:55:20;4.17;;;3.77;;
22172;SDS011;11252;50.596;17.648;2023-03-31T14:58:01;4.37;;;2.33;;
22172;SDS011;11252;50.596;17.648;2023-03-31T15:00:31;3.70;;;2.87;;
22172;SDS011;11252;50.596;17.648;2023-03-31T15:03:01;4.30;;;3.17;;
22172;SDS011;11252;50.596;17.648;2023-03-31T15:05:32;6.17;;;4.73;;
22172;SDS011;11252;50.596;17.648;2023-03-31T15:08:02;9.60;;;6.80;;
22172;SDS011;11252;50.596;17.648;2023-03-31T15:10:38;6.73;;;6.03;;
22172;SDS011;11252;50.596;17.648;2023-03-31T15:13:10;10.03;;;9.00;;
22172;SDS011;11252;50.596;17.648;2023-03-31T15:15:44;17.37;;;14.97;;
22172;SDS011;11252;50.596;17.648;2023-03-31T15:18:12;14.83;;;12.30;;
22172;SDS011;11252;50.596;17.648;2023-03-31T15:20:42;8.83;;;7.83;;
22172;SDS011;11252;50.596;17.648;2023-03-31T15:23:26;26.93;;;20.27;;
22172;SDS011;11252;50.596;17.648;2023-03-31T15:26:13;9.47;;;5.97;;
22172;SDS011;11252;50.596;17.648;2023-03-31T15:29:01;36.03;;;28.20;;
22172;SDS011;11252;50.596;17.648;2023-03-31T15:31:34;7.17;;;6.47;;
22172;SDS011;11252;50.596;17.648;2023-03-31T15:34:21;5.70;;;5.20;;
22172;SDS011;11252;50.596;17.648;2023-03-31T15:37:01;9.67;;;7.83;;
22172;SDS011;11252;50.596;17.648;2023-03-31T15:39:32;5.27;;;4.63;;
22172;SDS011;11252;50.596;17.648;2023-03-31T15:42:03;21.47;;;15.63;;
22172;SDS011;11252;50.596;17.648;2023-03-31T15:44:35;5.90;;;5.40;;
22172;SDS011;11252;50.596;17.648;2023-03-31T15:47:12;2.70;;;2.47;;
22172;SDS011;11252;50.596;17.648;2023-03-31T15:49:48;4.20;;;2.60;;
22172;SDS011;11252;50.596;17.648;2023-03-31T15:52:45;3.47;;;2.20;;
22172;SDS011;11252;50.596;17.648;2023-03-31T15:55:27;2.60;;;2.37;;
22172;SDS011;11252;50.596;17.648;2023-03-31T15:58:05;5.33;;;4.17;;
22172;SDS011;11252;50.596;17.648;2023-03-31T16:00:44;6.80;;;5.97;;
22172;SDS011;11252;50.596;17.648;2023-03-31T16:03:17;3.30;;;3.07;;
22172;SDS011;11252;50.596;17.648;2023-03-31T16:05:54;3.13;;;2.60;;
22172;SDS011;11252;50.596;17.648;2023-03-31T16:08:24;2.73;;;1.90;;
22172;SDS011;11252;50.596;17.648;2023-03-31T16:13:49;2.00;;;1.77;;
22172;SDS011;11252;50.596;17.648;2023-03-31T16:16:20;4.30;;;3.40;;
22172;SDS011;11252;50.596;17.648;2023-03-31T16:18:50;2.50;;;1.90;;
22172;SDS011;11252;50.596;17.648;2023-03-31T16:21:21;3.77;;;3.27;;
22172;SDS011;11252;50.596;17.648;2023-03-31T16:23:52;3.57;;;2.00;;
22172;SDS011;11252;50.596;17.648;2023-03-31T16:26:23;9.77;;;8.43;;
22172;SDS011;11252;50.596;17.648;2023-03-31T16:28:53;3.60;;;3.30;;
22172;SDS011;11252;50.596;17.648;2023-03-31T16:31:30;14.03;;;10.23;;
22172;SDS011;11252;50.596;17.648;2023-03-31T16:34:00;16.30;;;12.60;;
22172;SDS011;11252;50.596;17.648;2023-03-31T16:36:29;8.27;;;6.20;;
22172;SDS011;11252;50.596;17.648;2023-03-31T16:38:57;72.10;;;44.33;;
22172;SDS011;11252;50.596;17.648;2023-03-31T16:41:27;70.87;;;42.90;;
22172;SDS011;11252;50.596;17.648;2023-03-31T16:43:55;107.90;;;69.77;;
22172;SDS011;11252;50.596;17.648;2023-03-31T16:46:23;82.37;;;49.57;;
22172;SDS011;11252;50.596;17.648;2023-03-31T16:48:51;61.63;;;35.27;;
22172;SDS011;11252;50.596;17.648;2023-03-31T16:51:18;400.23;;;221.20;;
22172;SDS011;11252;50.596;17.648;2023-03-31T16:53:46;643.20;;;443.93;;
22172;SDS011;11252;50.596;17.648;2023-03-31T16:56:14;260.23;;;198.43;;
22172;SDS011;11252;50.596;17.648;2023-03-31T16:58:42;71.90;;;64.40;;
22172;SDS011;11252;50.596;17.648;2023-03-31T17:01:10;61.93;;;54.37;;
22172;SDS011;11252;50.596;17.648;2023-03-31T17:03:38;54.23;;;48.77;;
22172;SDS011;11252;50.596;17.648;2023-03-31T17:06:11;41.07;;;36.60;;
22172;SDS011;11252;50.596;17.648;2023-03-31T17:08:39;26.70;;;21.80;;
22172;SDS011;11252;50.596;17.648;2023-03-31T17:11:08;60.63;;;50.47;;
22172;SDS011;11252;50.596;17.648;2023-03-31T17:13:38;48.03;;;38.23;;
22172;SDS011;11252;50.596;17.648;2023-03-31T17:16:07;38.00;;;31.37;;
22172;SDS011;11252;50.596;17.648;2023-03-31T17:18:49;27.60;;;20.93;;
22172;SDS011;11252;50.596;17.648;2023-03-31T17:21:17;30.60;;;21.33;;
22172;SDS011;11252;50.596;17.648;2023-03-31T17:23:45;36.07;;;25.10;;
22172;SDS011;11252;50.596;17.648;2023-03-31T17:26:13;51.63;;;35.47;;
22172;SDS011;11252;50.596;17.648;2023-03-31T17:28:41;36.93;;;26.00;;
22172;SDS011;11252;50.596;17.648;2023-03-31T17:31:13;27.80;;;18.37;;
22172;SDS011;11252;50.596;17.648;2023-03-31T17:33:45;20.60;;;13.57;;
22172;SDS011;11252;50.596;17.648;2023-03-31T17:36:13;21.77;;;15.53;;
22172;SDS011;11252;50.596;17.648;2023-03-31T17:38:41;19.97;;;13.10;;
22172;SDS011;11252;50.596;17.648;2023-03-31T17:41:09;24.30;;;18.03;;
22172;SDS011;11252;50.596;17.648;2023-03-31T17:43:38;31.27;;;21.90;;
22172;SDS011;11252;50.596;17.648;2023-03-31T17:46:09;37.33;;;25.87;;
22172;SDS011;11252;50.596;17.648;2023-03-31T17:48:38;31.53;;;22.80;;
22172;SDS011;11252;50.596;17.648;2023-03-31T17:51:08;55.87;;;35.77;;
22172;SDS011;11252;50.596;17.648;2023-03-31T17:53:40;104.83;;;71.67;;
22172;SDS011;11252;50.596;17.648;2023-03-31T17:56:08;121.60;;;77.17;;
22172;SDS011;11252;50.596;17.648;2023-03-31T17:58:36;78.43;;;49.67;;
22172;SDS011;11252;50.596;17.648;2023-03-31T18:01:04;113.93;;;73.20;;